Georgetown, Australia
Current Conditions -  °F | °C
As of 12:00 AM on Thursday 23 Oct 2014 (Local Time) from YBCS Reporting Station
Scattered Clouds Scattered Clouds  
Wind Chill: 72°   Ceiling: Unl
Heat Index: 72°   Visibility: 6mi
Dew Point: 66°   Wind: 10mph
Humidity: 83%   Direction: 160°SSE
Pressure: 30.06"   Gusts: NA
Location:  18.3°S, 143.55°E
Report Text: YBCS 221400Z 16009KT 9999 FEW025 SCT045 22/19 Q1018 NOSIG
Loading
Personal Weather Stations






























Interactive Weather Map
Tropical Storm Tracking
New forecast layout! Learn more

10-Day Weather Forecast

Advertisements
Track Severe Weather on mobile